Station Historical Data
Daily Summary for November 29, 2017 Units:  English    Metric   Both
Next Day »
Daily Weekly Monthly Yearly Custom
  High: Low: Average:
Temperature: 52.2 °F 41.9 °F 46 °F
Dew Point: 44.9 °F 35.2 °F 39.9 °F
Humidity: 91% 69% 80%
Wind Speed: 9.0mph 0.0mph 0.5mph
Wind Gust: 13.0mph - -
Wind- - ESE
Pressure: 30.24 in 30.17 in -
Precipitation: 0.00 in    
Historical Graphs
 
 
Tabular Data for November 29, 2017
Time Temperature Dew Point Pressure Wind Wind Speed Wind Gust Humidity Rainfall Rate (Hourly) solar Conditions
00:09 42.2 °F 36.5 °F 30.18 in East 5.0 mph 8.0 mph 80% 0.00 in 0.00 W/m2
00:14 42.3 °F 36.9 °F 30.18 in East 7.0 mph 8.0 mph 81% 0.00 in 0.00 W/m2
00:19 42.4 °F 36.4 °F 30.18 in East 5.0 mph 8.0 mph 79% 0.00 in 0.00 W/m2
00:24 42.5 °F 36.5 °F 30.18 in Calm   7.0 mph 79% 0.00 in 0.00 W/m2
00:29 42.6 °F 36.2 °F 30.17 in Calm   7.0 mph 78% 0.00 in 0.00 W/m2
00:34 42.7 °F 36.3 °F 30.17 in East 1.0 mph 5.0 mph 78% 0.00 in 0.00 W/m2
00:59 42.9 °F 36.2 °F 30.17 in Calm     77% 0.00 in 0.00 W/m2
01:04 42.8 °F 35.8 °F 30.17 in Calm     76% 0.00 in 0.00 W/m2
01:09 42.8 °F 35.8 °F 30.17 in Calm     76% 0.00 in 0.00 W/m2
01:14 42.8 °F 35.8 °F 30.17 in Calm     76% 0.00 in 0.00 W/m2
01:19 42.8 °F 36.1 °F 30.17 in Calm   2.0 mph 77% 0.00 in 0.00 W/m2
01:25 42.7 °F 36.0 °F 30.17 in Calm     77% 0.00 in 0.00 W/m2
01:30 42.7 °F 36.3 °F 30.17 in Calm     78% 0.00 in 0.00 W/m2
01:35 42.6 °F 35.9 °F 30.18 in Calm   5.0 mph 77% 0.00 in 0.00 W/m2
01:40 42.6 °F 35.2 °F 30.18 in Calm     75% 0.00 in 0.00 W/m2
01:45 42.6 °F 35.6 °F 30.18 in Calm     76% 0.00 in 0.00 W/m2
01:55 42.7 °F 36.0 °F 30.18 in Calm     77% 0.00 in 0.00 W/m2
02:00 42.7 °F 36.0 °F 30.18 in Calm   4.0 mph 77% 0.00 in 0.00 W/m2
02:05 42.6 °F 35.6 °F 30.18 in Calm   5.0 mph 76% 0.00 in 0.00 W/m2
02:10 42.7 °F 35.7 °F 30.18 in Calm     76% 0.00 in 0.00 W/m2
02:15 42.7 °F 36.0 °F 30.18 in East 5.0 mph 5.0 mph 77% 0.00 in 0.00 W/m2
02:20 42.7 °F 36.0 °F 30.17 in Calm   6.0 mph 77% 0.00 in 0.00 W/m2
02:25 42.8 °F 35.4 °F 30.17 in Calm     75% 0.00 in 0.00 W/m2
02:30 42.8 °F 35.4 °F 30.18 in Calm     75% 0.00 in 0.00 W/m2
02:35 42.9 °F 35.9 °F 30.18 in Calm     76% 0.00 in 0.00 W/m2
02:50 43.0 °F 36.0 °F 30.17 in Calm   6.0 mph 76% 0.00 in 0.00 W/m2
03:00 43.1 °F 36.4 °F 30.17 in Calm   7.0 mph 77% 0.00 in 0.00 W/m2
03:05 43.1 °F 36.7 °F 30.17 in Calm   6.0 mph 78% 0.00 in 0.00 W/m2
03:10 43.1 °F 36.4 °F 30.17 in Calm     77% 0.00 in 0.00 W/m2
03:30 43.5 °F 36.8 °F 30.17 in Calm     77% 0.00 in 0.00 W/m2
03:46 43.8 °F 36.7 °F 30.17 in Calm     76% 0.00 in 0.00 W/m2
03:51 43.9 °F 36.5 °F 30.17 in Calm     75% 0.00 in 0.00 W/m2
03:56 44.0 °F 36.6 °F 30.17 in Calm     75% 0.00 in 0.00 W/m2
04:01 44.0 °F 36.3 °F 30.17 in Calm     74% 0.00 in 0.00 W/m2
04:06 44.0 °F 35.9 °F 30.17 in East 2.0 mph 11.0 mph 73% 0.00 in 0.00 W/m2
04:11 44.1 °F 36.4 °F 30.17 in East 5.0 mph 8.0 mph 74% 0.00 in 0.00 W/m2
04:16 44.1 °F 36.7 °F 30.17 in Calm     75% 0.00 in 0.00 W/m2
04:31 44.1 °F 36.0 °F 30.17 in East 8.0 mph 8.0 mph 73% 0.00 in 0.00 W/m2
04:56 44.3 °F 36.5 °F 30.18 in Calm     74% 0.00 in 0.00 W/m2
05:01 44.2 °F 36.8 °F 30.18 in ESE 4.0 mph 4.0 mph 75% 0.00 in 0.00 W/m2
05:11 44.2 °F 36.1 °F 30.17 in Calm     73% 0.00 in 0.00 W/m2
05:21 44.1 °F 35.7 °F 30.17 in Calm     72% 0.00 in 0.00 W/m2
05:41 43.8 °F 36.4 °F 30.17 in Calm     75% 0.00 in 0.00 W/m2
05:46 43.7 °F 37.0 °F 30.17 in Calm   6.0 mph 77% 0.00 in 0.00 W/m2
05:51 43.6 °F 36.9 °F 30.17 in Calm   4.0 mph 77% 0.00 in 0.00 W/m2
05:56 43.5 °F 37.1 °F 30.17 in Calm     78% 0.00 in 0.00 W/m2
06:01 43.3 °F 36.9 °F 30.17 in Calm     78% 0.00 in 0.00 W/m2
06:06 43.2 °F 36.8 °F 30.18 in Calm   5.0 mph 78% 0.00 in 0.00 W/m2
06:16 42.9 °F 36.5 °F 30.18 in Calm     78% 0.00 in 0.00 W/m2
06:21 42.9 °F 36.5 °F 30.18 in Calm     78% 0.00 in 0.00 W/m2
06:26 42.8 °F 36.4 °F 30.17 in Calm     78% 0.00 in 0.00 W/m2
06:31 42.8 °F 36.4 °F 30.18 in Calm     78% 0.00 in 0.00 W/m2
06:36 42.8 °F 37.1 °F 30.18 in Calm     80% 0.00 in 0.00 W/m2
06:41 42.7 °F 36.7 °F 30.18 in Calm     79% 0.00 in 0.00 W/m2
06:46 42.6 °F 36.5 °F 30.18 in Calm     79% 0.00 in 0.00 W/m2
06:56 42.2 °F 35.8 °F 30.18 in Calm     78% 0.00 in 0.00 W/m2
07:06 42.1 °F 36.1 °F 30.18 in Calm   2.0 mph 79% 0.00 in 9.00 W/m2
07:11 42.0 °F 35.7 °F 30.18 in Calm   4.0 mph 78% 0.00 in 11.00 W/m2
07:16 42.0 °F 35.7 °F 30.18 in Calm     78% 0.00 in 12.00 W/m2
07:22 42.0 °F 35.3 °F 30.18 in Calm   1.0 mph 77% 0.00 in 16.00 W/m2
07:27 42.1 °F 36.4 °F 30.19 in East 2.0 mph 2.0 mph 80% 0.00 in 21.00 W/m2
07:37 42.0 °F 36.0 °F 30.19 in Calm   4.0 mph 79% 0.00 in 42.00 W/m2
07:42 42.0 °F 36.3 °F 30.19 in Calm   1.0 mph 80% 0.00 in 56.00 W/m2
07:47 41.9 °F 35.9 °F 30.20 in Calm     79% 0.00 in 72.00 W/m2
07:52 42.0 °F 36.0 °F 30.20 in Calm     79% 0.00 in 86.00 W/m2
07:57 42.0 °F 35.3 °F 30.20 in Calm     77% 0.00 in 98.00 W/m2
08:02 42.1 °F 35.4 °F 30.21 in Calm     77% 0.00 in 114.00 W/m2
08:03 42.1 °F 35.8 °F 30.21 in Calm     78% 0.00 in 118.00 W/m2
08:18 42.7 °F 36.7 °F 30.21 in Calm     79% 0.00 in 169.00 W/m2
08:23 42.8 °F 37.1 °F 30.21 in Calm     80% 0.00 in 188.00 W/m2
08:28 42.9 °F 36.8 °F 30.21 in Calm     79% 0.00 in 206.00 W/m2
08:33 42.9 °F 36.8 °F 30.22 in Calm     79% 0.00 in 220.00 W/m2
08:38 43.2 °F 36.8 °F 30.22 in Calm     78% 0.00 in 237.00 W/m2
08:43 43.6 °F 36.9 °F 30.21 in Calm     77% 0.00 in 255.00 W/m2
08:48 43.9 °F 37.2 °F 30.22 in Calm     77% 0.00 in 272.00 W/m2
08:53 44.0 °F 37.3 °F 30.22 in Calm     77% 0.00 in 288.00 W/m2
08:58 44.2 °F 37.8 °F 30.22 in Calm     78% 0.00 in 304.00 W/m2
09:03 44.3 °F 36.9 °F 30.22 in Calm     75% 0.00 in 318.00 W/m2
09:08 44.5 °F 37.4 °F 30.22 in Calm     76% 0.00 in 330.00 W/m2
09:13 44.6 °F 37.2 °F 30.22 in Calm     75% 0.00 in 343.00 W/m2
09:18 44.8 °F 36.7 °F 30.22 in Calm     73% 0.00 in 353.00 W/m2
09:23 44.9 °F 37.8 °F 30.22 in Calm     76% 0.00 in 364.00 W/m2
09:28 45.2 °F 37.8 °F 30.22 in Calm     75% 0.00 in 376.00 W/m2
09:33 45.4 °F 39.3 °F 30.22 in Calm   2.0 mph 79% 0.00 in 385.00 W/m2
09:43 45.9 °F 39.1 °F 30.22 in Calm   7.0 mph 77% 0.00 in 406.00 W/m2
09:48 46.3 °F 39.5 °F 30.22 in Calm   4.0 mph 77% 0.00 in 415.00 W/m2
09:53 46.7 °F 38.2 °F 30.22 in Calm   4.0 mph 72% 0.00 in 424.00 W/m2
09:58 47.0 °F 37.7 °F 30.22 in Calm   1.0 mph 70% 0.00 in 432.00 W/m2
10:08 47.7 °F 38.4 °F 30.22 in Calm     70% 0.00 in 446.00 W/m2
10:13 48.0 °F 38.7 °F 30.22 in Calm     70% 0.00 in 455.00 W/m2
10:18 48.2 °F 39.2 °F 30.22 in Calm     71% 0.00 in 462.00 W/m2
10:28 48.6 °F 40.0 °F 30.22 in Calm     72% 0.00 in 476.00 W/m2
10:33 48.8 °F 40.2 °F 30.22 in Calm     72% 0.00 in 482.00 W/m2
10:38 48.8 °F 41.2 °F 30.22 in Calm     75% 0.00 in 487.00 W/m2
10:43 48.7 °F 40.1 °F 30.22 in Calm     72% 0.00 in 492.00 W/m2
10:48 48.6 °F 40.0 °F 30.22 in Calm   4.0 mph 72% 0.00 in 496.00 W/m2
10:54 48.5 °F 39.9 °F 30.22 in Calm     72% 0.00 in 501.00 W/m2
10:59 48.3 °F 39.7 °F 30.22 in East 2.0 mph 2.0 mph 72% 0.00 in 504.00 W/m2
11:04 48.3 °F 40.4 °F 30.22 in Calm     74% 0.00 in 508.00 W/m2
11:09 48.3 °F 40.1 °F 30.22 in Calm     73% 0.00 in 512.00 W/m2
11:19 48.5 °F 40.2 °F 30.21 in Calm   2.0 mph 73% 0.00 in 517.00 W/m2
11:29 48.8 °F 40.2 °F 30.21 in Calm   2.0 mph 72% 0.00 in 520.00 W/m2
11:34 49.0 °F 40.4 °F 30.21 in Calm     72% 0.00 in 522.00 W/m2
11:39 49.2 °F 40.6 °F 30.21 in Calm     72% 0.00 in 520.00 W/m2
11:49 49.4 °F 41.1 °F 30.21 in Calm     73% 0.00 in 522.00 W/m2
11:54 49.5 °F 40.9 °F 30.20 in Calm     72% 0.00 in 522.00 W/m2
11:59 49.7 °F 41.0 °F 30.20 in Calm     72% 0.00 in 520.00 W/m2
12:09 49.9 °F 41.2 °F 30.20 in Calm     72% 0.00 in 517.00 W/m2
12:14 50.0 °F 41.0 °F 30.19 in Calm     71% 0.00 in 517.00 W/m2
12:24 50.2 °F 41.5 °F 30.20 in Calm     72% 0.00 in 512.00 W/m2
12:25 50.2 °F 41.5 °F 30.20 in NE 1.0 mph 2.0 mph 72% 0.00 in 510.00 W/m2
12:30 50.3 °F 41.6 °F 30.20 in Calm   1.0 mph 72% 0.00 in 508.00 W/m2
12:35 50.4 °F 42.1 °F 30.20 in Calm   2.0 mph 73% 0.00 in 504.00 W/m2
12:40 50.4 °F 42.1 °F 30.20 in North 2.0 mph 3.0 mph 73% 0.00 in 501.00 W/m2
12:55 50.7 °F 42.0 °F 30.20 in Calm   1.0 mph 72% 0.00 in 485.00 W/m2
13:00 50.8 °F 42.1 °F 30.20 in Calm   2.0 mph 72% 0.00 in 480.00 W/m2
13:05 50.8 °F 42.5 °F 30.19 in Calm     73% 0.00 in 475.00 W/m2
13:10 50.8 °F 42.1 °F 30.19 in Calm   2.0 mph 72% 0.00 in 469.00 W/m2
13:15 50.9 °F 41.8 °F 30.19 in Calm     71% 0.00 in 461.00 W/m2
13:20 51.0 °F 41.9 °F 30.19 in Calm   2.0 mph 71% 0.00 in 455.00 W/m2
13:25 51.0 °F 41.9 °F 30.19 in Calm     71% 0.00 in 448.00 W/m2
13:30 51.1 °F 41.7 °F 30.18 in Calm     70% 0.00 in 439.00 W/m2
13:35 51.1 °F 41.7 °F 30.18 in Calm     70% 0.00 in 434.00 W/m2
13:40 51.3 °F 42.2 °F 30.18 in Calm     71% 0.00 in 425.00 W/m2
13:45 51.3 °F 42.6 °F 30.18 in Calm     72% 0.00 in 415.00 W/m2
13:50 51.5 °F 42.0 °F 30.18 in Calm     70% 0.00 in 406.00 W/m2
13:55 51.5 °F 42.0 °F 30.18 in Calm     70% 0.00 in 397.00 W/m2
14:00 51.6 °F 42.5 °F 30.18 in Calm   2.0 mph 71% 0.00 in 388.00 W/m2
14:10 51.7 °F 42.2 °F 30.18 in Calm     70% 0.00 in 367.00 W/m2
14:15 51.7 °F 42.2 °F 30.18 in Calm     70% 0.00 in 341.00 W/m2
14:20 51.8 °F 42.0 °F 30.17 in Calm     69% 0.00 in 271.00 W/m2
14:21 51.8 °F 42.0 °F 30.17 in Calm     69% 0.00 in 274.00 W/m2
14:26 51.9 °F 42.8 °F 30.17 in Calm     71% 0.00 in 327.00 W/m2
14:31 51.8 °F 43.1 °F 30.17 in Calm     72% 0.00 in 320.00 W/m2
14:36 51.8 °F 44.1 °F 30.17 in Calm     75% 0.00 in 306.00 W/m2
14:41 51.7 °F 43.3 °F 30.17 in Calm     73% 0.00 in 294.00 W/m2
14:46 51.7 °F 43.0 °F 30.17 in Calm     72% 0.00 in 281.00 W/m2
14:56 51.9 °F 42.4 °F 30.17 in Calm     70% 0.00 in 258.00 W/m2
15:06 52.1 °F 43.4 °F 30.18 in Calm     72% 0.00 in 230.00 W/m2
15:09 52.2 °F 43.1 °F 30.17 in Calm     71% 0.00 in 223.00 W/m2
15:14 52.2 °F 43.5 °F 30.18 in Calm     72% 0.00 in 206.00 W/m2
15:29 52.1 °F 44.1 °F 30.18 in Calm     74% 0.00 in 141.00 W/m2
15:34 51.9 °F 43.9 °F 30.18 in Calm     74% 0.00 in 139.00 W/m2
15:44 51.5 °F 44.2 °F 30.18 in Calm   2.0 mph 76% 0.00 in 105.00 W/m2
15:55 51.2 °F 43.6 °F 30.18 in Calm   1.0 mph 75% 0.00 in 74.00 W/m2
16:00 51.2 °F 44.9 °F 30.18 in Calm     79% 0.00 in 62.00 W/m2
16:01 51.1 °F 44.5 °F 30.18 in Calm     78% 0.00 in 56.00 W/m2
16:06 50.9 °F 44.3 °F 30.18 in Calm     78% 0.00 in 44.00 W/m2
16:16 50.4 °F 44.5 °F 30.18 in Calm     80% 0.00 in 26.00 W/m2
16:26 49.6 °F 44.3 °F 30.18 in Calm     82% 0.00 in 14.00 W/m2
16:36 49.0 °F 43.8 °F 30.18 in Calm     82% 0.00 in 7.00 W/m2
16:41 48.8 °F 43.9 °F 30.18 in Calm   3.0 mph 83% 0.00 in 5.00 W/m2
17:01 47.8 °F 43.5 °F 30.19 in Calm     85% 0.00 in 0.00 W/m2
17:06 47.6 °F 43.6 °F 30.19 in Calm     86% 0.00 in 0.00 W/m2
17:07 47.5 °F 43.5 °F 30.19 in Calm     86% 0.00 in 0.00 W/m2
17:12 47.4 °F 43.4 °F 30.19 in Calm     86% 0.00 in 0.00 W/m2
17:17 47.2 °F 43.2 °F 30.19 in Calm     86% 0.00 in 0.00 W/m2
17:22 47.0 °F 43.3 °F 30.19 in Calm     87% 0.00 in 0.00 W/m2
17:27 46.6 °F 42.9 °F 30.19 in Calm     87% 0.00 in 0.00 W/m2
17:32 46.3 °F 43.0 °F 30.19 in Calm     88% 0.00 in 0.00 W/m2
17:37 46.0 °F 43.0 °F 30.19 in Calm     89% 0.00 in 0.00 W/m2
17:42 45.8 °F 42.8 °F 30.19 in Calm     89% 0.00 in 0.00 W/m2
17:47 45.7 °F 42.9 °F 30.19 in Calm     90% 0.00 in 0.00 W/m2
17:52 45.6 °F 42.8 °F 30.19 in Calm     90% 0.00 in 0.00 W/m2
17:57 45.5 °F 43.0 °F 30.19 in Calm     91% 0.00 in 0.00 W/m2
18:07 45.5 °F 42.7 °F 30.19 in Calm     90% 0.00 in 0.00 W/m2
18:12 45.4 °F 42.6 °F 30.19 in Calm     90% 0.00 in 0.00 W/m2
18:17 45.4 °F 42.6 °F 30.18 in Calm   1.0 mph 90% 0.00 in 0.00 W/m2
18:22 45.3 °F 42.8 °F 30.18 in Calm     91% 0.00 in 0.00 W/m2
18:27 45.3 °F 42.8 °F 30.18 in Calm   3.0 mph 91% 0.00 in 0.00 W/m2
18:32 45.3 °F 42.8 °F 30.18 in North 2.0 mph 4.0 mph 91% 0.00 in 0.00 W/m2
18:37 45.3 °F 42.8 °F 30.18 in Calm   6.0 mph 91% 0.00 in 0.00 W/m2
18:42 45.3 °F 42.8 °F 30.18 in Calm   6.0 mph 91% 0.00 in 0.00 W/m2
18:47 45.4 °F 42.9 °F 30.19 in East 5.0 mph 7.0 mph 91% 0.00 in 0.00 W/m2
18:57 45.4 °F 42.6 °F 30.19 in Calm   6.0 mph 90% 0.00 in 0.00 W/m2
19:07 45.6 °F 42.8 °F 30.19 in ESE 2.0 mph 11.0 mph 90% 0.00 in 0.00 W/m2
19:08 45.6 °F 42.8 °F 30.19 in ESE 1.0 mph 11.0 mph 90% 0.00 in 0.00 W/m2
19:13 45.8 °F 43.0 °F 30.19 in Calm   9.0 mph 90% 0.00 in 0.00 W/m2
19:23 46.0 °F 43.0 °F 30.19 in Calm   6.0 mph 89% 0.00 in 0.00 W/m2
19:28 46.1 °F 43.0 °F 30.19 in Calm   9.0 mph 89% 0.00 in 0.00 W/m2
19:33 46.3 °F 43.2 °F 30.19 in East 6.0 mph 8.0 mph 89% 0.00 in 0.00 W/m2
19:43 46.5 °F 43.1 °F 30.19 in Calm   7.0 mph 88% 0.00 in 0.00 W/m2
19:48 46.5 °F 43.1 °F 30.19 in Calm   7.0 mph 88% 0.00 in 0.00 W/m2
19:53 46.6 °F 43.2 °F 30.19 in Calm   11.0 mph 88% 0.00 in 0.00 W/m2
20:03 46.7 °F 43.3 °F 30.20 in Calm   7.0 mph 88% 0.00 in 0.00 W/m2
20:04 46.7 °F 43.3 °F 30.20 in ESE 1.0 mph 11.0 mph 88% 0.00 in 0.00 W/m2
20:09 46.7 °F 43.3 °F 30.20 in ESE 4.0 mph 9.0 mph 88% 0.00 in 0.00 W/m2
20:19 46.2 °F 42.8 °F 30.20 in Calm   1.0 mph 88% 0.00 in 28.00 W/m2
20:24 46.0 °F 42.7 °F 30.21 in Calm     88% 0.00 in 0.00 W/m2
20:34 46.0 °F 43.0 °F 30.21 in Calm     89% 0.00 in 0.00 W/m2
20:39 45.9 °F 42.8 °F 30.21 in Calm     89% 0.00 in 0.00 W/m2
20:44 45.9 °F 42.8 °F 30.21 in Calm     89% 0.00 in 0.00 W/m2
20:49 45.8 °F 42.8 °F 30.22 in Calm     89% 0.00 in 0.00 W/m2
20:54 45.7 °F 42.7 °F 30.22 in Calm     89% 0.00 in 0.00 W/m2
20:59 45.6 °F 42.5 °F 30.22 in Calm     89% 0.00 in 0.00 W/m2
21:04 45.5 °F 42.5 °F 30.22 in Calm     89% 0.00 in 0.00 W/m2
21:09 45.3 °F 42.3 °F 30.23 in Calm     89% 0.00 in 0.00 W/m2
21:14 45.1 °F 42.3 °F 30.23 in Calm     90% 0.00 in 0.00 W/m2
21:19 45.0 °F 42.2 °F 30.23 in Calm     90% 0.00 in 0.00 W/m2
21:24 44.9 °F 42.2 °F 30.23 in Calm     90% 0.00 in 0.00 W/m2
21:29 44.7 °F 42.0 °F 30.23 in Calm     90% 0.00 in 0.00 W/m2
21:34 44.6 °F 41.8 °F 30.23 in Calm     90% 0.00 in 0.00 W/m2
21:39 44.5 °F 42.0 °F 30.23 in Calm     91% 0.00 in 0.00 W/m2
21:44 44.5 °F 41.8 °F 30.23 in Calm     90% 0.00 in 0.00 W/m2
21:54 44.2 °F 41.5 °F 30.24 in Calm     90% 0.00 in 0.00 W/m2
21:59 44.1 °F 41.4 °F 30.23 in Calm     90% 0.00 in 0.00 W/m2
22:04 44.0 °F 41.3 °F 30.23 in Calm     90% 0.00 in 0.00 W/m2
22:09 43.9 °F 41.5 °F 30.24 in Calm     91% 0.00 in 0.00 W/m2
22:14 43.8 °F 41.3 °F 30.23 in ESE 6.0 mph 6.0 mph 91% 0.00 in 0.00 W/m2
22:19 43.8 °F 41.3 °F 30.23 in ESE 5.0 mph 5.0 mph 91% 0.00 in 0.00 W/m2
22:24 43.8 °F 41.3 °F 30.23 in Calm   6.0 mph 91% 0.00 in 0.00 W/m2
22:29 43.8 °F 41.3 °F 30.23 in Calm   7.0 mph 91% 0.00 in 0.00 W/m2
22:39 43.9 °F 41.5 °F 30.23 in ESE 2.0 mph 7.0 mph 91% 0.00 in 0.00 W/m2
22:44 43.9 °F 41.5 °F 30.23 in ESE 9.0 mph 13.0 mph 91% 0.00 in 0.00 W/m2
22:49 43.9 °F 41.2 °F 30.23 in SE 5.0 mph 13.0 mph 90% 0.00 in 0.00 W/m2
22:54 44.0 °F 41.3 °F 30.23 in SE 7.0 mph 13.0 mph 90% 0.00 in 0.00 W/m2
23:04 44.1 °F 41.4 °F 30.23 in SE 4.0 mph 8.0 mph 90% 0.00 in 0.00 W/m2
23:14 44.2 °F 41.5 °F 30.23 in SE 4.0 mph 12.0 mph 90% 0.00 in 0.00 W/m2
23:24 44.2 °F 41.2 °F 30.23 in Calm   8.0 mph 89% 0.00 in 0.00 W/m2
23:44 44.0 °F 41.0 °F 30.23 in Calm     89% 0.00 in 0.00 W/m2
23:49 43.9 °F 40.9 °F 30.23 in Calm     89% 0.00 in 0.00 W/m2
23:54 43.8 °F 40.8 °F 30.23 in Calm     89% 0.00 in 0.00 W/m2
Foresthill Weather
 WU-history PHP script courtesy of   Juneau County Weather.
powered by Cumulus v1.9.3 (1059)
Ambient Weather VWS v14.00
Top Contact Website Map Copyright © 2007 - 2018 Foresthillweather.com Never base important decisions on this or any weather information obtained from the Internet